Tuesday, January 16, 2018, 6:53 AM EST
Back to Local

KMLT, Millinocket Municipal Airport

Location: Millinocket, ME, United States Lat: 45.65
Local Time: 6:53 AM EST (11:53 GMT) Lon: -68.7
Time Zone: US/Eastern Elev: 406 ft

Show me the last for .
Show Decoded

2018-01-16 05:53 METAR KMLT 161053Z AUTO 31004KT 5SM BR OVC021 M13/M15 A3050 RMK AO2 SNB0955E53
                 SLP345 P0000 T11281150 =
2018-01-16 04:53 METAR KMLT 160953Z AUTO 00000KT 7SM OVC019 M13/M16 A3051 RMK AO2 SNB0858E42
                 SLP346 P0000 T11331156 =
2018-01-16 03:53 METAR KMLT 160853Z AUTO 33004KT 7SM OVC020 M13/M16 A3054 RMK AO2 SLP356
                 T11281156 56013 =
2018-01-16 02:53 METAR KMLT 160753Z AUTO 01005KT 8SM OVC024 M13/M16 A3054 RMK AO2 SLP357
                 T11281156 =
2018-01-16 01:53 METAR KMLT 160653Z AUTO 36004KT 8SM OVC024 M13/M15 A3054 RMK AO2 SLP358
                 T11281150 =
2018-01-16 00:53 METAR KMLT 160553Z AUTO 35006KT 8SM OVC021 M13/M15 A3057 RMK AO2 SLP368
                 T11281150 11117 21128 56022 =
2018-01-15 23:53 METAR KMLT 160453Z AUTO 34006KT 9SM OVC022 M13/M16 A3059 RMK AO2 SLP376
                 T11281156 411171228 =
2018-01-15 22:53 METAR KMLT 160353Z AUTO 36006KT 9SM OVC022 M12/M15 A3061 RMK AO2 SLP381
                 T11221150 =
2018-01-15 21:53 METAR KMLT 160253Z AUTO 36007KT 9SM OVC022 M12/M15 A3064 RMK AO2 SLP391
                 T11221150 56018 =
2018-01-15 20:53 METAR KMLT 160153Z AUTO 02007KT 6SM HZ OVC022 M12/M15 A3065 RMK AO2 SLP394
                 T11221150 =
2018-01-15 19:53 METAR KMLT 160053Z AUTO 36007KT 9SM OVC024 M12/M15 A3068 RMK AO2 SLP406
                 T11221150 =
2018-01-15 18:53 METAR KMLT 152353Z AUTO 01007KT 7SM OVC024 M12/M15 A3069 RMK AO2 SLP411
                 T11221150 11117 21128 58006 =
2018-01-15 17:53 METAR KMLT 152253Z AUTO 02005KT 10SM OVC023 M12/M14 A3072 RMK AO2 SLP418
                 T11171144 =
2018-01-15 16:53 METAR KMLT 152153Z AUTO 02004KT 10SM OVC024 M12/M14 A3073 RMK AO2 SLP422
                 T11171144 =
2018-01-15 15:53 METAR KMLT 152053Z AUTO 01005KT 10SM OVC026 M12/M15 A3071 RMK AO2 SLP417
                 T11171150 56019 =
2018-01-15 14:53 METAR KMLT 151953Z AUTO 36006KT 10SM OVC025 M12/M16 A3072 RMK AO2 SLP421
                 T11171156 =
2018-01-15 13:53 METAR KMLT 151853Z AUTO 36006KT 10SM OVC024 M12/M17 A3074 RMK AO2 SLP428
                 T11221167 =
2018-01-15 12:53 METAR KMLT 151753Z AUTO 35004KT 10SM OVC024 M13/M17 A3077 RMK AO2 SLP436
                 T11281167 11128 21222 56040 =
2018-01-15 11:53 METAR KMLT 151653Z AUTO 36006KT 10SM BKN024 M14/M18 A3080 RMK AO2 SLP446
                 T11391183 =
2018-01-15 10:53 METAR KMLT 151553Z AUTO 01006KT 10SM CLR M15/M19 A3085 RMK AO2 SLP463 T11501194
                 =
2018-01-15 09:53 METAR KMLT 151453Z AUTO 05006KT 10SM CLR M16/M20 A3089 RMK AO2 SLP477 T11611200
                 53007 =
2018-01-15 08:53 METAR KMLT 151353Z AUTO 01004KT 10SM CLR M18/M22 A3087 RMK AO2 SLP471 T11781217
                 =
2018-01-15 07:53 METAR KMLT 151253Z AUTO 29003KT 10SM CLR M22/M24 A3087 RMK AO2 SLP473 T12171239
                 =

Support USWX by starting your Amazon purchase here.